createdAt,value
2019-02-15T00:02:14.258Z,4.20
2019-02-15T00:04:56.988Z,7.43
2019-02-15T00:07:31.578Z,6.73
2019-02-15T00:13:32.094Z,5.87
2019-02-15T00:16:21.509Z,7.87
2019-02-15T00:22:14.947Z,6.07
2019-02-15T00:24:57.246Z,6.53
2019-02-15T00:27:41.527Z,6.83
2019-02-15T00:33:08.418Z,7.33
2019-02-15T00:35:50.306Z,5.03
2019-02-15T00:41:22.906Z,4.43
2019-02-15T00:44:06.220Z,6.30
2019-02-15T00:46:55.819Z,8.13
2019-02-15T00:50:04.663Z,4.37
2019-02-15T00:53:14.361Z,4.43
2019-02-15T00:56:04.372Z,6.53
2019-02-15T00:58:47.089Z,5.03
2019-02-15T01:01:58.083Z,5.50
2019-02-15T01:04:40.518Z,6.20
2019-02-15T01:07:29.972Z,5.20
2019-02-15T01:10:29.941Z,4.23
2019-02-15T01:13:30.739Z,4.93
2019-02-15T01:15:59.363Z,5.30
2019-02-15T01:18:29.707Z,4.23
2019-02-15T01:21:33.054Z,3.80
2019-02-15T01:24:04.373Z,4.03
2019-02-15T01:26:54.419Z,3.57
2019-02-15T01:32:45.699Z,3.13
2019-02-15T01:35:37.008Z,4.33
2019-02-15T01:38:45.804Z,2.60
2019-02-15T01:44:57.410Z,4.33
2019-02-15T01:47:46.551Z,4.87
2019-02-15T01:50:36.306Z,5.03
2019-02-15T01:56:13.218Z,3.70
2019-02-15T01:58:54.733Z,3.37
2019-02-15T02:04:22.179Z,3.97
2019-02-15T02:07:03.867Z,2.93
2019-02-15T02:09:34.126Z,2.90
2019-02-15T02:15:13.352Z,3.70
2019-02-15T02:18:02.551Z,5.80
2019-02-15T02:20:32.897Z,3.77
2019-02-15T02:23:14.812Z,4.57
2019-02-15T02:25:58.234Z,2.97
2019-02-15T02:28:29.544Z,3.67
2019-02-15T02:30:59.900Z,2.30
2019-02-15T02:34:09.586Z,3.27
2019-02-15T02:37:00.224Z,2.80
2019-02-15T02:39:36.327Z,4.70
2019-02-15T02:42:26.035Z,2.80
2019-02-15T02:44:56.728Z,2.43
2019-02-15T02:47:28.628Z,2.10
2019-02-15T02:50:10.902Z,2.27
2019-02-15T02:52:41.239Z,1.80
2019-02-15T02:55:15.853Z,2.33
2019-02-15T02:58:20.694Z,5.07
2019-02-15T03:03:53.868Z,5.13
2019-02-15T03:06:36.639Z,7.07
2019-02-15T03:12:06.620Z,7.23
2019-02-15T03:14:50.281Z,6.30
2019-02-15T03:17:20.538Z,7.00
2019-02-15T03:20:11.230Z,7.30
2019-02-15T03:22:41.461Z,7.07
2019-02-15T03:25:32.683Z,5.63
2019-02-15T03:28:03.064Z,7.30
2019-02-15T03:30:35.067Z,3.90
2019-02-15T03:33:07.434Z,3.20
2019-02-15T03:41:47.316Z,4.30
2019-02-15T03:44:22.260Z,5.37
2019-02-15T03:46:58.480Z,3.60
2019-02-15T03:52:31.030Z,2.43
2019-02-15T03:55:01.262Z,4.10
2019-02-15T03:57:51.272Z,3.60
2019-02-15T04:00:23.330Z,2.77
2019-02-15T04:02:53.701Z,3.23
2019-02-15T04:08:45.962Z,2.87
2019-02-15T04:11:18.483Z,2.70
2019-02-15T04:13:48.851Z,5.00
2019-02-15T04:22:30.943Z,3.70
2019-02-15T04:25:20.448Z,4.47
2019-02-15T04:31:14.397Z,3.77
2019-02-15T04:33:46.955Z,4.00
2019-02-15T04:36:17.594Z,3.67
2019-02-15T04:39:00.402Z,2.80
2019-02-15T04:41:44.973Z,2.90
2019-02-15T04:44:26.451Z,6.43
2019-02-15T04:46:56.857Z,5.23
2019-02-15T04:49:38.564Z,7.23
2019-02-15T04:52:29.517Z,11.20
2019-02-15T04:55:01.744Z,11.83
2019-02-15T04:57:54.445Z,16.90
2019-02-15T05:00:24.742Z,11.33
2019-02-15T05:02:54.993Z,10.23
2019-02-15T05:05:36.813Z,10.93
2019-02-15T05:08:19.174Z,11.77
2019-02-15T05:11:03.206Z,15.13
2019-02-15T05:13:28.452Z,12.23
2019-02-15T05:16:17.822Z,11.77
2019-02-15T05:18:48.092Z,10.80
2019-02-15T05:21:20.581Z,11.60
2019-02-15T05:24:03.406Z,11.83
2019-02-15T05:26:45.156Z,11.30
2019-02-15T05:32:16.212Z,11.20
2019-02-15T05:35:08.788Z,10.67
2019-02-15T05:41:35.250Z,10.43
2019-02-15T05:44:08.035Z,13.37
2019-02-15T05:46:40.240Z,14.57
2019-02-15T05:49:29.583Z,16.17
2019-02-15T05:52:00.302Z,12.30
2019-02-15T05:54:49.888Z,14.07
2019-02-15T05:57:20.145Z,12.60
2019-02-15T05:59:50.353Z,15.93
2019-02-15T06:02:47.630Z,9.57
2019-02-15T06:05:42.428Z,9.47
2019-02-15T06:08:14.317Z,9.27
2019-02-15T06:11:06.595Z,9.63
2019-02-15T06:13:41.392Z,9.43
2019-02-15T06:16:22.909Z,7.77
2019-02-15T06:19:04.193Z,5.63
2019-02-15T06:21:47.201Z,8.27
2019-02-15T06:24:17.627Z,6.80
2019-02-15T06:26:47.893Z,8.43
2019-02-15T06:29:18.165Z,8.27
2019-02-15T06:31:48.770Z,9.47
2019-02-15T06:37:14.180Z,6.87
2019-02-15T06:39:55.815Z,6.83
2019-02-15T06:42:26.417Z,5.70
2019-02-15T06:45:24.263Z,8.53
2019-02-15T06:51:13.978Z,7.90
2019-02-15T06:53:53.172Z,7.30
2019-02-15T06:56:53.405Z,5.63
2019-02-15T07:02:40.750Z,7.63
2019-02-15T07:05:32.444Z,5.60
2019-02-15T07:08:03.762Z,7.23
2019-02-15T07:10:46.531Z,8.57
2019-02-15T07:13:28.870Z,9.03
2019-02-15T07:15:59.105Z,10.13
2019-02-15T07:18:30.931Z,10.33
2019-02-15T07:21:14.979Z,13.93
2019-02-15T07:23:45.271Z,13.47
2019-02-15T07:26:15.533Z,13.27
2019-02-15T07:29:05.200Z,12.50
2019-02-15T07:31:35.390Z,11.47
2019-02-15T07:36:55.490Z,11.73
2019-02-15T07:39:50.098Z,11.50
2019-02-15T07:42:21.252Z,11.63
2019-02-15T07:45:17.961Z,11.17
2019-02-15T07:47:58.707Z,12.97
2019-02-15T07:53:24.524Z,8.77
2019-02-15T07:55:57.632Z,10.37
2019-02-15T07:58:29.524Z,12.20
2019-02-15T08:01:12.747Z,11.20
2019-02-15T08:03:43.108Z,10.53
2019-02-15T08:06:34.350Z,9.53
2019-02-15T08:15:37.421Z,14.33
2019-02-15T08:18:07.691Z,16.30
2019-02-15T08:23:46.553Z,15.13
2019-02-15T08:26:16.916Z,14.30
2019-02-15T08:29:06.532Z,12.47
2019-02-15T08:32:10.927Z,11.00
2019-02-15T08:34:56.437Z,12.20
2019-02-15T08:37:27.985Z,14.07
2019-02-15T08:40:17.749Z,11.87
2019-02-15T08:42:59.452Z,12.13
2019-02-15T08:45:43.688Z,11.33
2019-02-15T08:48:33.085Z,12.37
2019-02-15T08:51:22.805Z,11.03
2019-02-15T08:54:02.004Z,14.43
2019-02-15T08:59:45.567Z,23.20
2019-02-15T09:05:06.035Z,14.93
2019-02-15T09:07:36.384Z,11.90
2019-02-15T09:10:17.881Z,10.97
2019-02-15T09:13:00.414Z,8.07
2019-02-15T09:15:30.670Z,10.27
2019-02-15T09:18:00.985Z,7.37
2019-02-15T09:20:46.130Z,10.10
2019-02-15T09:23:28.544Z,7.87
2019-02-15T09:26:00.887Z,8.03
2019-02-15T09:28:52.031Z,5.60
2019-02-15T09:31:41.314Z,6.03
2019-02-15T09:34:11.537Z,7.40
2019-02-15T09:36:56.827Z,4.80
2019-02-15T09:39:41.806Z,6.13
2019-02-15T09:45:14.406Z,8.43
2019-02-15T09:47:44.680Z,5.70
2019-02-15T09:50:17.412Z,6.07
2019-02-15T09:59:07.752Z,4.17
2019-02-15T10:01:50.179Z,4.53
2019-02-15T10:04:20.535Z,5.53
2019-02-15T10:07:12.740Z,6.80
2019-02-15T10:09:43.878Z,3.87
2019-02-15T10:12:14.129Z,4.63
2019-02-15T10:14:44.400Z,4.57
2019-02-15T10:17:14.959Z,3.90
2019-02-15T10:19:58.822Z,3.97
2019-02-15T10:22:29.102Z,4.30
2019-02-15T10:25:12.152Z,4.03
2019-02-15T10:27:42.520Z,5.30
2019-02-15T10:30:13.117Z,5.70
2019-02-15T10:32:55.195Z,4.10
2019-02-15T10:35:40.748Z,4.97
2019-02-15T10:38:11.033Z,5.03
2019-02-15T10:46:45.512Z,4.17
2019-02-15T10:49:15.815Z,7.57
2019-02-15T10:51:59.217Z,3.07
2019-02-15T10:54:41.656Z,3.33
2019-02-15T11:00:01.109Z,2.97
2019-02-15T11:02:51.909Z,3.63
2019-02-15T11:05:22.285Z,2.87
2019-02-15T11:08:04.212Z,2.30
2019-02-15T11:10:36.359Z,2.03
2019-02-15T11:13:38.836Z,1.77
2019-02-15T11:16:09.145Z,2.40
2019-02-15T11:19:00.352Z,2.00
2019-02-15T11:24:59.385Z,3.80
2019-02-15T11:27:50.465Z,2.33
2019-02-15T11:30:20.763Z,3.17
2019-02-15T11:33:02.394Z,3.97
2019-02-15T11:38:47.173Z,2.17
2019-02-15T11:41:17.501Z,4.50
2019-02-15T11:43:50.785Z,2.53
2019-02-15T11:46:40.347Z,1.60
2019-02-15T11:55:36.375Z,1.30
2019-02-15T11:58:18.766Z,1.60
2019-02-15T12:00:49.118Z,2.43
2019-02-15T12:06:24.612Z,1.93
2019-02-15T12:09:32.997Z,3.80
2019-02-15T12:12:10.487Z,3.33
2019-02-15T12:14:40.765Z,1.67
2019-02-15T12:20:20.081Z,1.50
2019-02-15T12:26:30.917Z,3.10
2019-02-15T12:35:50.678Z,1.53
2019-02-15T12:38:40.076Z,1.50
2019-02-15T12:41:24.061Z,4.83
2019-02-15T12:43:49.487Z,1.40
2019-02-15T12:46:57.884Z,1.60
2019-02-15T12:49:40.185Z,1.50
2019-02-15T12:55:15.269Z,1.10
2019-02-15T12:57:50.754Z,1.53
2019-02-15T13:00:21.059Z,1.43
2019-02-15T13:05:48.324Z,1.53
2019-02-15T13:11:05.629Z,1.50
2019-02-15T13:14:15.854Z,2.20
2019-02-15T13:16:47.733Z,1.40
2019-02-15T13:19:18.032Z,2.03
2019-02-15T13:22:08.074Z,2.07
2019-02-15T13:28:25.311Z,3.17
2019-02-15T13:30:55.716Z,1.27
2019-02-15T13:33:45.506Z,2.87
2019-02-15T13:36:55.066Z,1.70
2019-02-15T13:39:25.405Z,2.93
2019-02-15T13:42:07.204Z,1.57
2019-02-15T13:44:51.141Z,1.60
2019-02-15T13:47:35.200Z,1.60
2019-02-15T13:50:25.324Z,1.90
2019-02-15T13:56:25.213Z,2.03
2019-02-15T13:59:34.967Z,1.70
2019-02-15T14:02:05.420Z,1.27
2019-02-15T14:05:09.553Z,1.30
2019-02-15T14:08:08.808Z,1.93
2019-02-15T14:13:40.559Z,1.10
2019-02-15T14:16:10.817Z,3.17
2019-02-15T14:18:45.025Z,0.93
2019-02-15T14:21:28.612Z,1.33
2019-02-15T14:24:17.754Z,1.03
2019-02-15T14:26:48.055Z,1.90
2019-02-15T14:29:29.790Z,1.20
2019-02-15T14:32:14.295Z,1.03
2019-02-15T14:34:44.581Z,2.53
2019-02-15T14:37:34.303Z,1.97
2019-02-15T14:46:36.101Z,1.50
2019-02-15T14:49:32.316Z,1.70
2019-02-15T14:52:03.009Z,1.40
2019-02-15T14:54:54.289Z,1.60
2019-02-15T14:57:24.611Z,1.43
2019-02-15T15:03:16.121Z,5.53
2019-02-15T15:05:46.383Z,1.30
2019-02-15T15:08:35.786Z,3.33
2019-02-15T15:11:06.092Z,5.03
2019-02-15T15:16:49.550Z,1.30
2019-02-15T15:19:33.856Z,2.27
2019-02-15T15:25:37.542Z,1.50
2019-02-15T15:28:07.812Z,1.73
2019-02-15T15:31:22.291Z,2.50
2019-02-15T15:33:52.664Z,1.07
2019-02-15T15:36:28.488Z,1.60
2019-02-15T15:42:23.630Z,1.37
2019-02-15T15:48:22.933Z,2.30
2019-02-15T15:54:16.572Z,1.63
2019-02-15T15:56:47.212Z,5.17
2019-02-15T16:02:43.576Z,2.87
2019-02-15T16:05:55.143Z,1.47
2019-02-15T16:08:25.446Z,1.83
2019-02-15T16:10:55.724Z,2.90
2019-02-15T16:17:00.963Z,2.57
2019-02-15T16:19:51.410Z,3.33
2019-02-15T16:25:59.664Z,4.97
2019-02-15T16:28:29.726Z,5.07
2019-02-15T16:34:09.568Z,6.00
2019-02-15T16:36:39.791Z,7.20
2019-02-15T16:39:25.855Z,10.73
2019-02-15T16:42:15.819Z,6.47
2019-02-15T16:44:46.115Z,12.77
2019-02-15T16:47:35.846Z,12.23
2019-02-15T16:50:19.207Z,14.67
2019-02-15T16:52:51.246Z,13.07
2019-02-15T16:55:52.607Z,8.90
2019-02-15T16:58:18.671Z,9.77
2019-02-15T17:01:04.031Z,7.60
2019-02-15T17:12:19.675Z,6.03
2019-02-15T17:15:01.835Z,6.07
2019-02-15T17:17:33.157Z,6.83
2019-02-15T17:20:03.450Z,5.70
2019-02-15T17:22:45.983Z,6.27
2019-02-15T17:25:28.361Z,4.77
2019-02-15T17:28:00.925Z,5.00
2019-02-15T17:33:33.196Z,4.87
2019-02-15T17:36:15.594Z,4.27
2019-02-15T17:41:44.237Z,4.53
2019-02-15T17:47:17.685Z,2.80
2019-02-15T17:49:48.155Z,3.67
2019-02-15T17:52:57.968Z,4.33
2019-02-15T17:55:28.233Z,4.60
2019-02-15T17:58:12.750Z,5.97
2019-02-15T18:01:02.109Z,11.57
2019-02-15T18:06:21.218Z,22.63
2019-02-15T18:08:53.093Z,48.10
2019-02-15T18:11:44.432Z,42.43
2019-02-15T18:14:56.300Z,39.73
2019-02-15T18:17:26.593Z,53.23
2019-02-15T18:23:31.186Z,28.97
2019-02-15T18:26:01.887Z,21.00
2019-02-15T18:28:46.520Z,15.40
2019-02-15T18:31:28.174Z,11.37
2019-02-15T18:37:03.203Z,7.63
2019-02-15T18:39:45.255Z,7.17
2019-02-15T18:42:17.886Z,6.43
2019-02-15T18:51:46.098Z,9.37
2019-02-15T18:54:11.082Z,8.67
2019-02-15T18:56:58.319Z,9.43
2019-02-15T18:59:29.726Z,13.67
2019-02-15T19:08:17.429Z,8.83
2019-02-15T19:10:50.906Z,6.80
2019-02-15T19:13:33.321Z,5.70
2019-02-15T19:18:59.647Z,6.07
2019-02-15T19:21:29.881Z,6.23
2019-02-15T19:24:00.151Z,5.60
2019-02-15T19:26:51.691Z,5.00
2019-02-15T19:29:41.297Z,4.87
2019-02-15T19:35:27.057Z,4.73
2019-02-15T19:41:35.474Z,4.40
2019-02-15T19:44:00.371Z,4.20
2019-02-15T19:46:32.706Z,3.93
2019-02-15T19:49:17.988Z,3.27
2019-02-15T19:52:09.230Z,2.33
2019-02-15T19:54:51.730Z,2.23
2019-02-15T19:57:35.248Z,1.97
2019-02-15T20:00:11.471Z,1.43
2019-02-15T20:02:45.832Z,1.63
2019-02-15T20:05:27.745Z,1.50
2019-02-15T20:08:01.098Z,1.60
2019-02-15T20:10:53.030Z,1.40
2019-02-15T20:19:21.046Z,1.73
2019-02-15T20:21:51.259Z,1.47
2019-02-15T20:24:38.585Z,1.00
2019-02-15T20:27:27.770Z,1.60
2019-02-15T20:30:17.195Z,1.90
2019-02-15T20:33:06.405Z,1.43
2019-02-15T20:44:41.631Z,3.47
2019-02-15T20:47:43.247Z,3.07
2019-02-15T20:50:11.787Z,2.27
2019-02-15T20:53:24.302Z,2.07
2019-02-15T21:07:06.502Z,2.17
2019-02-15T21:09:42.587Z,3.40
2019-02-15T21:12:54.674Z,3.00
2019-02-15T21:15:11.440Z,3.13
2019-02-15T21:17:54.314Z,3.03
2019-02-15T21:20:38.667Z,2.57
2019-02-15T21:23:07.525Z,2.53
2019-02-15T21:25:56.872Z,3.47
2019-02-15T21:34:40.038Z,3.77
2019-02-15T21:39:50.376Z,2.57
2019-02-15T21:42:20.878Z,3.43
2019-02-15T21:45:29.389Z,4.80
2019-02-15T21:48:02.370Z,2.37
2019-02-15T21:53:27.054Z,3.53
2019-02-15T21:56:03.296Z,4.17
2019-02-15T21:58:33.620Z,3.50
2019-02-15T22:01:15.312Z,2.77
2019-02-15T22:03:57.484Z,3.73
2019-02-15T22:06:27.898Z,3.50
2019-02-15T22:09:03.841Z,3.27
2019-02-15T22:14:44.599Z,4.03
2019-02-15T22:17:53.074Z,5.43
2019-02-15T22:20:27.039Z,5.10
2019-02-15T22:23:05.388Z,3.40
2019-02-15T22:26:01.518Z,4.30
2019-02-15T22:28:31.866Z,4.30
2019-02-15T22:31:02.133Z,4.97
2019-02-15T22:33:35.575Z,4.97
2019-02-15T22:36:25.279Z,5.00
2019-02-15T22:39:15.038Z,4.20
2019-02-15T22:42:07.059Z,4.30
2019-02-15T22:48:02.006Z,4.53
2019-02-15T22:50:46.375Z,3.30
2019-02-15T22:53:12.220Z,3.33
2019-02-15T22:56:01.582Z,3.17
2019-02-15T22:58:49.070Z,3.13
2019-02-15T23:04:54.826Z,3.73
2019-02-15T23:07:25.102Z,3.13
2019-02-15T23:10:14.832Z,3.10
2019-02-15T23:15:41.368Z,3.27
2019-02-15T23:18:41.951Z,3.47
2019-02-15T23:21:12.296Z,4.57
2019-02-15T23:23:53.969Z,4.03
2019-02-15T23:29:26.404Z,3.43
2019-02-15T23:32:08.651Z,3.27
2019-02-15T23:34:38.868Z,3.90
2019-02-15T23:37:09.194Z,4.73
2019-02-15T23:39:53.071Z,3.10
2019-02-15T23:42:24.264Z,4.10
2019-02-15T23:47:46.244Z,4.63
2019-02-15T23:50:30.706Z,4.73
2019-02-15T23:55:42.957Z,2.83
2019-02-15T23:58:52.944Z,3.10
